createdAt,value
2023-12-12T00:00:31.150Z,53.5
2023-12-12T00:01:37.173Z,53.5
2023-12-12T00:02:43.067Z,53.5
2023-12-12T00:03:49.305Z,53.5
2023-12-12T00:04:55.365Z,53.5
2023-12-12T00:06:00.429Z,53.5
2023-12-12T00:07:06.730Z,53.5
2023-12-12T00:08:12.797Z,53.5
2023-12-12T00:09:18.900Z,53.5
2023-12-12T00:10:25.065Z,53.5
2023-12-12T00:11:31.218Z,53.5
2023-12-12T00:12:37.312Z,53.5
2023-12-12T00:13:43.357Z,53.5
2023-12-12T00:14:49.549Z,53.5
2023-12-12T00:15:55.626Z,53.5
2023-12-12T00:17:01.848Z,53.5
2023-12-12T00:18:07.666Z,53.5
2023-12-12T00:19:13.980Z,53.5
2023-12-12T00:20:19.119Z,53.5
2023-12-12T00:21:25.209Z,53.5
2023-12-12T00:22:31.302Z,53.5
2023-12-12T00:23:37.477Z,53.5
2023-12-12T00:24:43.552Z,53.5
2023-12-12T00:25:49.481Z,53.5
2023-12-12T00:26:54.866Z,53.5
2023-12-12T00:28:01.067Z,53.5
2023-12-12T00:29:07.153Z,53.5
2023-12-12T00:30:13.298Z,53.5
2023-12-12T00:31:19.076Z,53.5
2023-12-12T00:32:25.187Z,53.5
2023-12-12T00:33:31.305Z,53.5
2023-12-12T00:34:37.569Z,53.5
2023-12-12T00:35:43.534Z,53.5
2023-12-12T00:36:49.788Z,53.5
2023-12-12T00:37:55.843Z,53.5
2023-12-12T00:39:02.046Z,53.5
2023-12-12T00:40:08.115Z,53.5
2023-12-12T00:41:13.118Z,53.5
2023-12-12T00:42:19.280Z,53.5
2023-12-12T00:43:25.417Z,53.5
2023-12-12T00:44:31.514Z,53.5
2023-12-12T00:45:37.584Z,53.5
2023-12-12T00:46:43.723Z,53.5
2023-12-12T00:47:49.801Z,53.5
2023-12-12T00:48:55.960Z,53.5
2023-12-12T00:50:02.096Z,53.5
2023-12-12T00:51:08.145Z,53.5
2023-12-12T00:52:14.400Z,53.5
2023-12-12T00:53:20.525Z,53.5
2023-12-12T00:54:26.498Z,53.5
2023-12-12T00:55:31.848Z,53.5
2023-12-12T00:56:37.795Z,53.5
2023-12-12T00:57:43.921Z,53.5
2023-12-12T00:58:50.057Z,53.5
2023-12-12T00:59:56.327Z,53.5
2023-12-12T01:01:02.243Z,53.5
2023-12-12T01:02:08.332Z,53.5
2023-12-12T01:03:14.484Z,53.5
2023-12-12T01:04:20.534Z,53.5
2023-12-12T01:05:26.640Z,53.5
2023-12-12T01:06:32.855Z,53.5
2023-12-12T01:07:38.864Z,53.5
2023-12-12T01:08:45.035Z,53.5
2023-12-12T01:09:50.107Z,53.5
2023-12-12T01:10:56.226Z,53.5
2023-12-12T01:12:02.328Z,53.5
2023-12-12T01:13:08.461Z,53.5
2023-12-12T01:14:14.574Z,53.5
2023-12-12T01:15:20.705Z,53.5
2023-12-12T01:16:26.803Z,53.5
2023-12-12T01:17:32.903Z,53.5
2023-12-12T01:18:39.016Z,53.5
2023-12-12T01:19:45.170Z,53.5
2023-12-12T01:20:51.377Z,53.5
2023-12-12T01:21:57.420Z,53.5
2023-12-12T01:23:03.539Z,53.5
2023-12-12T01:24:08.633Z,53.5
2023-12-12T01:25:14.787Z,53.5
2023-12-12T01:26:20.966Z,53.5
2023-12-12T01:27:27.163Z,53.5
2023-12-12T01:28:33.056Z,53.5
2023-12-12T01:29:39.204Z,53.5
2023-12-12T01:30:45.322Z,53.5
2023-12-12T01:31:51.498Z,53.5
2023-12-12T01:32:57.645Z,53.5
2023-12-12T01:34:03.627Z,53.5
2023-12-12T01:35:09.740Z,53.5
2023-12-12T01:36:15.884Z,53.5
2023-12-12T01:37:22.138Z,53.5
2023-12-12T01:38:27.101Z,53.5
2023-12-12T01:39:33.270Z,53.5
2023-12-12T01:40:39.384Z,53.5
2023-12-12T01:41:45.515Z,53.5
2023-12-12T01:42:51.634Z,53.5
2023-12-12T01:43:57.668Z,53.5
2023-12-12T01:45:03.837Z,53.5
2023-12-12T01:46:09.915Z,53.5
2023-12-12T01:47:16.073Z,53.5
2023-12-12T01:48:22.112Z,53.5
2023-12-12T01:49:28.285Z,53.5
2023-12-12T01:50:34.355Z,53.5
2023-12-12T01:51:40.475Z,53.5
2023-12-12T01:52:45.596Z,53.5
2023-12-12T01:53:51.778Z,53.5
2023-12-12T01:54:57.877Z,53.5
2023-12-12T01:56:03.967Z,53.5
2023-12-12T01:57:10.059Z,53.5
2023-12-12T01:58:16.207Z,53.5
2023-12-12T01:59:22.335Z,53.5
2023-12-12T02:00:28.421Z,53.5
2023-12-12T02:01:34.525Z,53.5
2023-12-12T02:02:40.617Z,53.5
2023-12-12T02:03:46.727Z,53.5
2023-12-12T02:04:52.842Z,53.5
2023-12-12T02:05:59.109Z,53.5
2023-12-12T02:07:04.078Z,53.5
2023-12-12T02:08:10.204Z,53.5
2023-12-12T02:09:16.326Z,53.5
2023-12-12T02:10:22.424Z,53.5
2023-12-12T02:11:28.557Z,53.5
2023-12-12T02:12:34.822Z,53.5
2023-12-12T02:13:40.767Z,53.5
2023-12-12T02:14:46.885Z,53.5
2023-12-12T02:15:52.995Z,53.5
2023-12-12T02:16:59.121Z,53.5
2023-12-12T02:18:05.236Z,53.5
2023-12-12T02:19:11.342Z,53.5
2023-12-12T02:20:17.459Z,53.5
2023-12-12T02:21:22.619Z,53.5
2023-12-12T02:22:28.718Z,53.5
2023-12-12T02:23:34.848Z,53.5
2023-12-12T02:24:40.933Z,53.5
2023-12-12T02:25:47.044Z,53.5
2023-12-12T02:26:53.200Z,53.5
2023-12-12T02:27:59.262Z,53.5
2023-12-12T02:29:05.381Z,53.5
2023-12-12T02:30:11.569Z,53.5
2023-12-12T02:31:17.613Z,53.5
2023-12-12T02:32:23.726Z,53.5
2023-12-12T02:33:29.842Z,53.5
2023-12-12T02:34:35.950Z,53.5
2023-12-12T02:35:41.147Z,53.5
2023-12-12T02:36:47.203Z,53.5
2023-12-12T02:37:53.340Z,53.5
2023-12-12T02:38:59.447Z,53.5
2023-12-12T02:40:05.539Z,53.5
2023-12-12T02:41:11.645Z,53.5
2023-12-12T02:42:17.766Z,53.5
2023-12-12T02:43:23.876Z,53.5
2023-12-12T02:44:29.982Z,53.5
2023-12-12T02:45:36.098Z,53.5
2023-12-12T02:46:42.212Z,53.5
2023-12-12T02:47:48.367Z,53.5
2023-12-12T02:48:54.476Z,53.5
2023-12-12T02:49:59.600Z,53.5
2023-12-12T02:51:05.728Z,53.5
2023-12-12T02:52:11.810Z,53.5
2023-12-12T02:53:18.135Z,53.5
2023-12-12T02:54:24.030Z,53.5
2023-12-12T02:55:30.162Z,53.5
2023-12-12T02:56:36.333Z,53.5
2023-12-12T02:57:42.388Z,53.5
2023-12-12T02:58:48.595Z,53.5
2023-12-12T02:59:54.601Z,53.5
2023-12-12T03:01:00.715Z,53.5
2023-12-12T03:02:06.817Z,53.5
2023-12-12T03:03:12.987Z,53.5
2023-12-12T03:04:18.121Z,53.5
2023-12-12T03:05:24.190Z,53.5
2023-12-12T03:06:30.352Z,53.5
2023-12-12T03:07:36.440Z,53.5
2023-12-12T03:08:42.559Z,53.5
2023-12-12T03:09:48.625Z,53.5
2023-12-12T03:10:54.747Z,53.5
2023-12-12T03:12:00.873Z,53.5
2023-12-12T03:13:06.975Z,53.5
2023-12-12T03:14:13.103Z,53.5
2023-12-12T03:15:19.205Z,53.5
2023-12-12T03:16:25.318Z,53.5
2023-12-12T03:17:31.436Z,53.5
2023-12-12T03:18:36.555Z,53.5
2023-12-12T03:19:42.678Z,53.5
2023-12-12T03:20:48.873Z,53.5
2023-12-12T03:21:54.904Z,53.5
2023-12-12T03:23:01.030Z,53.5
2023-12-12T03:24:07.129Z,53.5
2023-12-12T03:25:13.314Z,53.5
2023-12-12T03:26:19.361Z,53.5
2023-12-12T03:27:25.464Z,53.5
2023-12-12T03:28:31.582Z,53.5
2023-12-12T03:29:37.706Z,53.5
2023-12-12T03:30:43.812Z,53.5
2023-12-12T03:31:50.036Z,53.5
2023-12-12T03:32:55.084Z,53.5
2023-12-12T03:34:01.224Z,53.5
2023-12-12T03:35:07.287Z,53.5
2023-12-12T03:36:13.403Z,53.5
2023-12-12T03:37:19.525Z,53.5
2023-12-12T03:38:25.628Z,53.5
2023-12-12T03:39:31.737Z,53.5
2023-12-12T03:40:37.940Z,53.5
2023-12-12T03:41:44.023Z,53.5
2023-12-12T03:42:50.301Z,53.5
2023-12-12T03:43:56.200Z,53.5
2023-12-12T03:45:02.309Z,53.5
2023-12-12T03:46:08.418Z,53.5
2023-12-12T03:47:13.579Z,53.5
2023-12-12T03:48:19.679Z,53.5
2023-12-12T03:49:25.898Z,53.5
2023-12-12T03:50:31.894Z,53.5
2023-12-12T03:51:38.015Z,53.5
2023-12-12T03:52:44.123Z,53.5
2023-12-12T03:53:50.255Z,53.5
2023-12-12T03:54:56.344Z,53.5
2023-12-12T03:56:02.501Z,53.5
2023-12-12T03:57:08.615Z,53.5
2023-12-12T03:58:14.685Z,53.5
2023-12-12T03:59:20.800Z,53.5
2023-12-12T04:00:26.914Z,53.5
2023-12-12T04:01:32.088Z,53.5
2023-12-12T04:02:38.313Z,53.5
2023-12-12T04:03:44.276Z,53.5
2023-12-12T04:04:50.381Z,53.5
2023-12-12T04:05:56.514Z,53.5
2023-12-12T04:07:02.615Z,53.5
2023-12-12T04:08:07.743Z,53.5
2023-12-12T04:09:13.862Z,53.5
2023-12-12T04:10:19.978Z,53.5
2023-12-12T04:11:26.101Z,53.5
2023-12-12T04:12:32.204Z,53.5
2023-12-12T04:13:38.325Z,53.5
2023-12-12T04:14:44.505Z,53.5
2023-12-12T04:15:50.552Z,53.5
2023-12-12T04:16:56.661Z,53.5
2023-12-12T04:18:02.787Z,53.5
2023-12-12T04:19:08.884Z,53.5
2023-12-12T04:20:15.008Z,53.5
2023-12-12T04:21:21.109Z,53.5
2023-12-12T04:22:26.239Z,53.5
2023-12-12T04:23:32.351Z,53.5
2023-12-12T04:24:38.486Z,53.5
2023-12-12T04:25:44.587Z,53.5
2023-12-12T04:26:50.697Z,53.5
2023-12-12T04:27:56.813Z,53.5
2023-12-12T04:29:03.021Z,53.5
2023-12-12T04:30:09.135Z,53.5
2023-12-12T04:31:15.221Z,53.5
2023-12-12T04:32:21.295Z,53.5
2023-12-12T04:33:27.387Z,53.5
2023-12-12T04:34:33.497Z,53.5
2023-12-12T04:35:39.618Z,53.5
2023-12-12T04:36:44.888Z,53.5
2023-12-12T04:37:50.845Z,53.5
2023-12-12T04:38:56.973Z,53.5
2023-12-12T04:40:03.102Z,53.5
2023-12-12T04:41:09.193Z,53.5
2023-12-12T04:42:15.325Z,53.5
2023-12-12T04:43:21.424Z,53.5
2023-12-12T04:44:27.550Z,53.5
2023-12-12T04:45:33.651Z,53.5
2023-12-12T04:46:39.767Z,53.5
2023-12-12T04:47:45.883Z,53.5
2023-12-12T04:48:52.037Z,53.5
2023-12-12T04:49:58.110Z,53.5
2023-12-12T04:51:03.236Z,53.5
2023-12-12T04:52:09.355Z,53.5
2023-12-12T04:53:15.459Z,53.5
2023-12-12T04:54:21.585Z,53.5
2023-12-12T04:55:27.683Z,53.5
2023-12-12T04:56:33.837Z,53.5
2023-12-12T04:57:39.931Z,53.5
2023-12-12T04:58:46.098Z,53.5
2023-12-12T04:59:52.150Z,53.5
2023-12-12T05:00:58.262Z,53.5
2023-12-12T05:02:04.378Z,53.5
2023-12-12T05:03:10.484Z,53.5
2023-12-12T05:04:16.620Z,53.5
2023-12-12T05:05:21.756Z,53.5
2023-12-12T05:06:27.845Z,53.5
2023-12-12T05:07:33.985Z,53.5
2023-12-12T05:08:40.079Z,53.5
2023-12-12T05:09:46.190Z,53.5
2023-12-12T05:10:52.324Z,53.5
2023-12-12T05:11:58.420Z,53.5
2023-12-12T05:13:04.544Z,53.5
2023-12-12T05:14:10.649Z,53.5
2023-12-12T05:15:16.747Z,53.5
2023-12-12T05:16:22.885Z,53.5
2023-12-12T05:17:29.024Z,53.5
2023-12-12T05:18:35.129Z,53.5
2023-12-12T05:19:40.268Z,53.5
2023-12-12T05:20:46.370Z,53.5
2023-12-12T05:21:52.444Z,53.5
2023-12-12T05:22:58.607Z,53.5
2023-12-12T05:24:04.691Z,53.5
2023-12-12T05:25:10.789Z,53.5
2023-12-12T05:26:16.901Z,53.5
2023-12-12T05:27:23.019Z,53.5
2023-12-12T05:28:29.134Z,53.5
2023-12-12T05:29:35.371Z,53.5
2023-12-12T05:30:41.415Z,53.5
2023-12-12T05:31:47.476Z,53.5
2023-12-12T05:32:53.622Z,53.5
2023-12-12T05:33:58.733Z,53.5
2023-12-12T05:35:04.842Z,53.5
2023-12-12T05:36:10.953Z,53.5
2023-12-12T05:37:17.090Z,53.5
2023-12-12T05:38:23.223Z,53.5
2023-12-12T05:39:29.345Z,53.5
2023-12-12T05:40:35.411Z,53.5
2023-12-12T05:41:41.528Z,53.5
2023-12-12T05:42:47.706Z,53.5
2023-12-12T05:43:53.751Z,53.5
2023-12-12T05:44:59.862Z,53.5
2023-12-12T05:46:05.996Z,53.5
2023-12-12T05:47:12.108Z,53.5
2023-12-12T05:48:17.289Z,53.5
2023-12-12T05:49:23.334Z,53.5
2023-12-12T05:50:29.456Z,53.5
2023-12-12T05:51:35.639Z,53.5
2023-12-12T05:52:41.799Z,53.5
2023-12-12T05:53:48.090Z,53.5
2023-12-12T05:54:53.908Z,53.5
2023-12-12T05:56:00.090Z,53.5
2023-12-12T05:57:06.174Z,53.5
2023-12-12T05:58:12.296Z,53.5
2023-12-12T05:59:18.422Z,53.5
2023-12-12T06:00:24.501Z,53.5
2023-12-12T06:01:30.642Z,53.5
2023-12-12T06:02:35.771Z,53.5
2023-12-12T06:03:41.841Z,53.5
2023-12-12T06:04:47.957Z,53.5
2023-12-12T06:05:54.082Z,53.5
2023-12-12T06:07:00.173Z,53.5
2023-12-12T06:08:06.322Z,53.5
2023-12-12T06:09:12.407Z,53.5
2023-12-12T06:10:18.639Z,53.5
2023-12-12T06:11:24.670Z,53.5
2023-12-12T06:12:30.781Z,53.5
2023-12-12T06:13:36.854Z,53.5
2023-12-12T06:14:43.145Z,53.5
2023-12-12T06:15:49.125Z,53.5
2023-12-12T06:16:54.228Z,53.5
2023-12-12T06:18:00.325Z,53.5
2023-12-12T06:19:06.487Z,53.5
2023-12-12T06:20:12.552Z,53.5
2023-12-12T06:21:18.810Z,53.5
2023-12-12T06:22:24.778Z,53.5
2023-12-12T06:23:30.940Z,53.5
2023-12-12T06:24:37.139Z,53.5
2023-12-12T06:25:43.248Z,53.5
2023-12-12T06:26:49.311Z,53.5
2023-12-12T06:27:55.674Z,53.5
2023-12-12T06:29:01.471Z,53.5
2023-12-12T06:30:07.592Z,53.5
2023-12-12T06:31:12.719Z,53.5
2023-12-12T06:32:18.896Z,53
2023-12-12T06:33:25.032Z,53
2023-12-12T06:34:31.059Z,53.5
2023-12-12T06:35:37.355Z,53
2023-12-12T06:36:43.325Z,53.5
2023-12-12T06:37:49.388Z,53.5
2023-12-12T06:38:55.509Z,53.5
2023-12-12T06:40:01.636Z,53.5
2023-12-12T06:41:07.755Z,53.5
2023-12-12T06:42:13.891Z,53
2023-12-12T06:43:20.020Z,53
2023-12-12T06:44:26.121Z,53.5
2023-12-12T06:45:31.282Z,53.5
2023-12-12T06:46:37.334Z,53.5
2023-12-12T06:47:43.449Z,53.5
2023-12-12T06:48:49.633Z,53
2023-12-12T06:49:55.656Z,53.5
2023-12-12T06:51:01.771Z,53.5
2023-12-12T06:52:08.004Z,53.5
2023-12-12T06:53:14.038Z,53.5
2023-12-12T06:54:20.261Z,53.5
2023-12-12T06:55:26.241Z,53.5
2023-12-12T06:56:32.494Z,53.5
2023-12-12T06:57:38.509Z,53
2023-12-12T06:58:44.595Z,53.5
2023-12-12T06:59:49.727Z,53.5
2023-12-12T07:00:55.821Z,53
2023-12-12T07:02:01.933Z,53
2023-12-12T07:03:08.118Z,53
2023-12-12T07:04:14.257Z,53
2023-12-12T07:05:20.305Z,53
2023-12-12T07:06:26.579Z,53
2023-12-12T07:07:32.538Z,53
2023-12-12T07:08:38.701Z,53
2023-12-12T07:09:44.794Z,53
2023-12-12T07:10:51.101Z,53
2023-12-12T07:11:57.190Z,53.5
2023-12-12T07:13:03.267Z,53.5
2023-12-12T07:14:08.327Z,53.5
2023-12-12T07:15:14.405Z,53.5
2023-12-12T07:16:20.440Z,53.5
2023-12-12T07:17:26.567Z,53.5
2023-12-12T07:18:32.659Z,53.5
2023-12-12T07:19:39.017Z,53.5
2023-12-12T07:20:44.952Z,53.5
2023-12-12T07:21:51.263Z,53.5
2023-12-12T07:22:57.151Z,53.5
2023-12-12T07:24:03.229Z,53
2023-12-12T07:25:09.338Z,53
2023-12-12T07:26:15.516Z,53
2023-12-12T07:27:21.610Z,53
2023-12-12T07:28:26.684Z,53
2023-12-12T07:29:32.956Z,53
2023-12-12T07:30:39.031Z,53
2023-12-12T07:31:45.044Z,53
2023-12-12T07:32:51.274Z,53
2023-12-12T07:33:57.412Z,53
2023-12-12T07:35:03.406Z,53
2023-12-12T07:36:09.542Z,53
2023-12-12T07:37:15.795Z,53
2023-12-12T07:38:21.974Z,53
2023-12-12T07:39:27.887Z,53
2023-12-12T07:40:34.106Z,53
2023-12-12T07:41:40.063Z,53
2023-12-12T07:42:45.202Z,53
2023-12-12T07:43:51.300Z,53
2023-12-12T07:44:57.483Z,53
2023-12-12T07:46:03.580Z,53
2023-12-12T07:47:09.911Z,53
2023-12-12T07:48:16.027Z,53
2023-12-12T07:49:20.990Z,53
2023-12-12T07:50:27.006Z,53
2023-12-12T07:51:33.201Z,53
2023-12-12T07:52:39.272Z,53
2023-12-12T07:53:45.352Z,53
2023-12-12T07:54:51.482Z,53
2023-12-12T07:55:57.612Z,53
2023-12-12T07:57:03.685Z,53
2023-12-12T07:58:09.816Z,53
2023-12-12T07:59:15.934Z,53
2023-12-12T08:00:22.186Z,53
2023-12-12T08:01:28.140Z,53
2023-12-12T08:02:34.418Z,53
2023-12-12T08:03:39.461Z,53
2023-12-12T08:04:45.647Z,53
2023-12-12T08:05:51.956Z,53
2023-12-12T08:06:57.833Z,53
2023-12-12T08:08:04.087Z,53
2023-12-12T08:09:10.138Z,53
2023-12-12T08:10:16.326Z,53
2023-12-12T08:11:22.334Z,53
2023-12-12T08:12:28.302Z,53
2023-12-12T08:13:34.542Z,53
2023-12-12T08:14:40.617Z,53
2023-12-12T08:15:46.751Z,53
2023-12-12T08:19:05.164Z,53
2023-12-12T08:20:10.316Z,53
2023-12-12T08:21:16.472Z,53
2023-12-12T08:22:22.421Z,53
2023-12-12T08:23:28.548Z,53
2023-12-12T08:24:34.673Z,53
2023-12-12T08:25:40.808Z,53
2023-12-12T08:26:46.798Z,53
2023-12-12T08:27:52.926Z,53
2023-12-12T08:28:59.123Z,53
2023-12-12T08:30:05.147Z,54.5
2023-12-12T08:31:11.261Z,54.5
2023-12-12T08:32:17.481Z,54.5
2023-12-12T08:33:23.713Z,54.5
2023-12-12T08:34:28.662Z,54.5
2023-12-12T08:35:34.745Z,54
2023-12-12T08:37:47.186Z,54
2023-12-12T08:38:52.290Z,54
2023-12-12T08:39:57.467Z,54
2023-12-12T08:41:03.396Z,53.5
2023-12-12T08:42:09.526Z,53.5
2023-12-12T08:44:21.681Z,53
2023-12-12T08:45:26.817Z,52.5
2023-12-12T08:46:32.960Z,52.5
2023-12-12T08:47:39.189Z,52.5
2023-12-12T08:48:45.154Z,52.5
2023-12-12T08:49:51.324Z,52
2023-12-12T08:50:57.530Z,52
2023-12-12T08:52:03.490Z,52
2023-12-12T08:53:09.632Z,52
2023-12-12T08:54:15.858Z,52
2023-12-12T08:55:21.984Z,52
2023-12-12T08:57:34.127Z,52
2023-12-12T08:58:39.226Z,52
2023-12-12T08:59:45.352Z,52
2023-12-12T09:00:50.561Z,52
2023-12-12T09:01:55.593Z,52
2023-12-12T09:03:01.789Z,51.5
2023-12-12T09:04:07.821Z,51.5
2023-12-12T09:05:14.032Z,52
2023-12-12T09:06:20.124Z,52
2023-12-12T09:07:26.217Z,52
2023-12-12T09:09:38.507Z,52
2023-12-12T09:11:50.747Z,52
2023-12-12T09:14:02.856Z,52
2023-12-12T09:16:15.210Z,52
2023-12-12T09:17:20.287Z,52
2023-12-12T09:18:26.525Z,52
2023-12-12T09:19:32.488Z,52
2023-12-12T09:20:38.531Z,52
2023-12-12T09:21:44.745Z,52
2023-12-12T09:22:50.753Z,52
2023-12-12T09:23:56.925Z,52
2023-12-12T09:25:02.984Z,52
2023-12-12T09:26:09.112Z,52
2023-12-12T09:27:14.246Z,52
2023-12-12T09:28:19.441Z,52
2023-12-12T09:29:25.518Z,52
2023-12-12T09:30:31.583Z,52
2023-12-12T09:31:37.720Z,52
2023-12-12T09:32:43.823Z,52
2023-12-12T09:33:49.966Z,52
2023-12-12T09:34:56.073Z,52
2023-12-12T09:36:02.178Z,52
2023-12-12T09:37:08.384Z,52
2023-12-12T09:38:13.497Z,52
2023-12-12T09:39:18.585Z,52
2023-12-12T09:40:24.657Z,52
2023-12-12T09:42:36.905Z,52
2023-12-12T09:43:43.002Z,52
2023-12-12T09:44:49.121Z,52.5
2023-12-12T09:45:55.450Z,52.5
2023-12-12T09:47:01.339Z,52.5
2023-12-12T09:48:07.488Z,52.5
2023-12-12T09:49:13.590Z,52.5
2023-12-12T09:50:19.682Z,52.5
2023-12-12T09:51:25.830Z,52.5
2023-12-12T09:52:31.926Z,52.5
2023-12-12T09:53:37.048Z,52.5
2023-12-12T09:54:43.172Z,52.5
2023-12-12T09:56:55.378Z,52.5
2023-12-12T09:58:00.529Z,52.5
2023-12-12T09:59:06.633Z,52.5
2023-12-12T10:00:12.796Z,52.5
2023-12-12T10:01:18.988Z,52.5
2023-12-12T10:02:24.094Z,52.5
2023-12-12T10:03:30.265Z,52.5
2023-12-12T10:04:36.494Z,52.5
2023-12-12T10:05:42.558Z,52.5
2023-12-12T10:06:48.516Z,52.5
2023-12-12T10:07:54.572Z,52.5
2023-12-12T10:08:59.776Z,52.5
2023-12-12T10:10:04.828Z,52.5
2023-12-12T10:11:10.937Z,52.5
2023-12-12T10:12:17.129Z,52.5
2023-12-12T10:13:23.171Z,52.5
2023-12-12T10:14:29.305Z,52.5
2023-12-12T10:15:35.667Z,52.5
2023-12-12T10:16:41.563Z,52.5
2023-12-12T10:17:47.779Z,52.5
2023-12-12T10:20:00.050Z,52.5
2023-12-12T10:21:06.069Z,52.5
2023-12-12T10:22:12.149Z,52.5
2023-12-12T10:23:18.303Z,52.5
2023-12-12T10:25:29.483Z,52.5
2023-12-12T10:26:34.664Z,52.5
2023-12-12T10:27:39.767Z,52.5
2023-12-12T10:28:45.810Z,52.5
2023-12-12T10:29:51.933Z,52.5
2023-12-12T10:30:58.048Z,52.5
2023-12-12T10:32:04.152Z,52.5
2023-12-12T10:33:10.415Z,52.5
2023-12-12T10:34:16.449Z,52.5
2023-12-12T10:35:22.612Z,52.5
2023-12-12T10:36:28.613Z,52.5
2023-12-12T10:37:33.737Z,52.5
2023-12-12T10:38:38.867Z,52.5
2023-12-12T10:39:44.989Z,52.5
2023-12-12T10:40:51.112Z,52.5
2023-12-12T10:41:57.216Z,52.5
2023-12-12T10:43:03.489Z,52.5
2023-12-12T10:44:09.620Z,52.5
2023-12-12T10:45:15.543Z,52.5
2023-12-12T10:46:21.671Z,53
2023-12-12T10:47:27.838Z,53
2023-12-12T10:48:32.991Z,53
2023-12-12T10:49:39.078Z,53
2023-12-12T10:50:44.313Z,53.5
2023-12-12T10:51:50.416Z,54
2023-12-12T10:52:56.552Z,54
2023-12-12T10:54:02.647Z,54.5
2023-12-12T10:55:08.757Z,54.5
2023-12-12T10:56:14.967Z,55
2023-12-12T10:57:20.852Z,55
2023-12-12T10:58:27.163Z,55.5
2023-12-12T10:59:33.056Z,55.5
2023-12-12T11:00:39.465Z,55.5
2023-12-12T11:01:45.283Z,56
2023-12-12T11:02:51.406Z,56
2023-12-12T11:03:57.526Z,56
2023-12-12T11:05:02.652Z,56
2023-12-12T11:06:08.761Z,56
2023-12-12T11:07:14.898Z,56
2023-12-12T11:08:21.018Z,56
2023-12-12T11:09:27.193Z,56
2023-12-12T11:10:32.461Z,56
2023-12-12T11:11:37.382Z,56
2023-12-12T11:12:42.592Z,56.5
2023-12-12T11:13:48.749Z,56.5
2023-12-12T11:14:54.745Z,56.5
2023-12-12T11:16:00.986Z,56.5
2023-12-12T11:17:06.953Z,56.5
2023-12-12T11:18:13.094Z,56.5
2023-12-12T11:19:19.272Z,56.5
2023-12-12T11:20:25.410Z,56.5
2023-12-12T11:21:31.435Z,56.5
2023-12-12T11:22:37.564Z,56.5
2023-12-12T11:23:43.789Z,56.5
2023-12-12T11:24:49.842Z,56.5
2023-12-12T11:25:56.053Z,56.5
2023-12-12T11:27:01.014Z,56.5
2023-12-12T11:28:07.308Z,56.5
2023-12-12T11:29:13.396Z,56.5
2023-12-12T11:30:18.385Z,56.5
2023-12-12T11:31:24.529Z,56.5
2023-12-12T11:32:30.703Z,57
2023-12-12T11:33:35.809Z,56.5
2023-12-12T11:34:41.066Z,57
2023-12-12T11:35:46.068Z,57
2023-12-12T11:36:52.235Z,57
2023-12-12T11:37:58.367Z,57
2023-12-12T11:39:04.347Z,57
2023-12-12T11:40:10.521Z,57
2023-12-12T11:41:16.703Z,57
2023-12-12T11:42:22.682Z,57
2023-12-12T11:43:28.947Z,57
2023-12-12T11:44:34.911Z,57
2023-12-12T11:45:41.025Z,57
2023-12-12T11:46:47.163Z,57
2023-12-12T11:47:53.249Z,57
2023-12-12T11:48:59.536Z,57
2023-12-12T11:50:04.549Z,57
2023-12-12T11:51:10.709Z,57
2023-12-12T11:52:16.925Z,57
2023-12-12T11:53:22.830Z,57
2023-12-12T11:54:29.033Z,57
2023-12-12T11:55:35.163Z,57.5
2023-12-12T11:56:40.443Z,57.5
2023-12-12T11:57:45.348Z,57.5
2023-12-12T11:59:57.642Z,57.5
2023-12-12T12:01:03.699Z,57.5
2023-12-12T12:02:09.786Z,57.5
2023-12-12T12:03:16.114Z,57.5
2023-12-12T12:04:22.173Z,57.5
2023-12-12T12:05:28.208Z,57.5
2023-12-12T12:06:34.302Z,57.5
2023-12-12T12:08:46.616Z,57.5
2023-12-12T12:09:51.837Z,57.5
2023-12-12T12:10:56.945Z,57.5
2023-12-12T12:12:02.908Z,57.5
2023-12-12T12:13:09.074Z,57.5
2023-12-12T12:14:15.224Z,57.5
2023-12-12T12:15:21.303Z,57.5
2023-12-12T12:16:27.437Z,57.5
2023-12-12T12:17:33.537Z,57.5
2023-12-12T12:18:39.569Z,57.5
2023-12-12T12:19:45.922Z,57.5
2023-12-12T12:21:57.086Z,57.5
2023-12-12T12:23:02.141Z,57.5
2023-12-12T12:24:08.129Z,57.5
2023-12-12T12:25:14.412Z,57.5
2023-12-12T12:26:20.351Z,57.5
2023-12-12T12:27:26.529Z,57.5
2023-12-12T12:28:32.590Z,57.5
2023-12-12T12:29:38.719Z,57.5
2023-12-12T12:30:44.856Z,58
2023-12-12T12:31:51.018Z,58
2023-12-12T12:32:56.079Z,58
2023-12-12T12:34:01.413Z,58
2023-12-12T12:35:07.458Z,58
2023-12-12T12:36:13.514Z,58
2023-12-12T12:37:19.544Z,58
2023-12-12T12:38:25.676Z,58
2023-12-12T12:39:31.887Z,58
2023-12-12T12:40:38.057Z,58
2023-12-12T12:41:44.013Z,58
2023-12-12T12:42:50.162Z,58
2023-12-12T12:43:56.470Z,58
2023-12-12T12:46:08.462Z,58
2023-12-12T12:47:14.653Z,58
2023-12-12T12:48:19.789Z,58
2023-12-12T12:49:25.832Z,58
2023-12-12T12:50:31.915Z,58
2023-12-12T12:51:38.184Z,58
2023-12-12T12:52:44.233Z,58
2023-12-12T12:53:50.283Z,58
2023-12-12T12:54:56.427Z,58
2023-12-12T12:56:01.617Z,58
2023-12-12T12:57:06.641Z,58
2023-12-12T12:58:11.808Z,58
2023-12-12T12:59:17.949Z,58
2023-12-12T13:00:24.147Z,58
2023-12-12T13:01:30.400Z,58
2023-12-12T13:02:36.302Z,58
2023-12-12T13:03:42.433Z,58
2023-12-12T13:04:48.621Z,58
2023-12-12T13:05:54.763Z,58
2023-12-12T13:07:00.818Z,58.5
2023-12-12T13:08:06.818Z,58.5
2023-12-12T13:09:12.987Z,58
2023-12-12T13:10:19.035Z,58
2023-12-12T13:11:25.142Z,58.5
2023-12-12T13:12:30.301Z,58.5
2023-12-12T13:13:36.505Z,58.5
2023-12-12T13:14:42.506Z,58.5
2023-12-12T13:15:48.788Z,58.5
2023-12-12T13:18:00.849Z,57.5
2023-12-12T13:19:06.960Z,57.5
2023-12-12T13:20:12.098Z,57
2023-12-12T13:21:17.225Z,57
2023-12-12T13:22:23.382Z,57
2023-12-12T13:23:29.562Z,56.5
2023-12-12T13:24:35.728Z,56.5
2023-12-12T13:25:41.780Z,56.5
2023-12-12T13:26:47.858Z,56.5
2023-12-12T13:27:53.916Z,56
2023-12-12T13:29:00.011Z,56
2023-12-12T13:30:06.153Z,56
2023-12-12T13:31:12.285Z,56
2023-12-12T13:32:18.352Z,56
2023-12-12T13:33:24.546Z,55.5
2023-12-12T13:34:30.734Z,55.5
2023-12-12T13:35:35.721Z,55.5
2023-12-12T13:36:41.829Z,55.5
2023-12-12T13:37:47.944Z,55.5
2023-12-12T13:38:54.214Z,55.5
2023-12-12T13:40:00.213Z,55
2023-12-12T13:41:06.376Z,55
2023-12-12T13:42:11.491Z,55
2023-12-12T13:43:16.691Z,55
2023-12-12T13:44:21.749Z,55
2023-12-12T13:45:27.816Z,55
2023-12-12T13:46:34.037Z,55
2023-12-12T13:47:40.023Z,55
2023-12-12T13:48:46.163Z,55
2023-12-12T13:49:52.233Z,55
2023-12-12T13:52:04.478Z,55
2023-12-12T13:53:10.658Z,55
2023-12-12T13:54:16.718Z,55
2023-12-12T13:55:22.823Z,55
2023-12-12T13:56:28.936Z,55
2023-12-12T13:57:35.172Z,55
2023-12-12T13:58:40.174Z,55
2023-12-12T13:59:46.306Z,55
2023-12-12T14:00:52.467Z,55
2023-12-12T14:01:58.514Z,55
2023-12-12T14:03:04.663Z,55
2023-12-12T14:04:10.743Z,54.5
2023-12-12T14:05:16.871Z,54.5
2023-12-12T14:07:28.108Z,54.5
2023-12-12T14:08:33.249Z,54.5
2023-12-12T14:09:38.483Z,54.5
2023-12-12T14:10:43.514Z,54.5
2023-12-12T14:11:49.620Z,54.5
2023-12-12T14:12:55.748Z,54.5
2023-12-12T14:14:01.928Z,54.5
2023-12-12T14:15:07.972Z,54.5
2023-12-12T14:16:14.085Z,54.5
2023-12-12T14:17:20.196Z,54.5
2023-12-12T14:18:26.314Z,54.5
2023-12-12T14:19:32.427Z,54.5
2023-12-12T14:20:38.554Z,54.5
2023-12-12T14:21:44.668Z,54.5
2023-12-12T14:22:50.804Z,54.5
2023-12-12T14:23:56.913Z,54.5
2023-12-12T14:25:02.068Z,54.5
2023-12-12T14:26:08.179Z,54.5
2023-12-12T14:27:14.359Z,54.5
2023-12-12T14:28:20.352Z,54.5
2023-12-12T14:29:26.491Z,54.5
2023-12-12T14:30:32.565Z,54.5
2023-12-12T14:31:37.713Z,54.5
2023-12-12T14:32:42.837Z,54.5
2023-12-12T14:33:49.083Z,54.5
2023-12-12T14:34:55.045Z,54.5
2023-12-12T14:36:01.429Z,54.5
2023-12-12T14:37:07.295Z,54.5
2023-12-12T14:38:13.407Z,54.5
2023-12-12T14:39:19.516Z,54.5
2023-12-12T14:40:25.652Z,54
2023-12-12T14:41:31.786Z,54
2023-12-12T14:42:37.888Z,54
2023-12-12T14:43:44.069Z,54
2023-12-12T14:44:50.092Z,54
2023-12-12T14:45:56.200Z,54
2023-12-12T14:47:01.398Z,54
2023-12-12T14:48:07.442Z,54
2023-12-12T14:49:13.716Z,54
2023-12-12T14:50:19.933Z,54
2023-12-12T14:51:26.048Z,54
2023-12-12T14:52:32.174Z,54
2023-12-12T14:54:43.187Z,54
2023-12-12T14:55:48.576Z,54
2023-12-12T14:56:53.591Z,54
2023-12-12T14:57:59.807Z,54
2023-12-12T14:59:05.935Z,54
2023-12-12T15:00:12.047Z,54
2023-12-12T15:01:18.229Z,54
2023-12-12T15:02:24.263Z,54
2023-12-12T15:03:30.298Z,54
2023-12-12T15:04:36.520Z,54
2023-12-12T15:05:42.618Z,54
2023-12-12T15:06:48.719Z,54
2023-12-12T15:07:54.774Z,54
2023-12-12T15:09:00.815Z,54
2023-12-12T15:10:06.982Z,54
2023-12-12T15:11:11.935Z,54
2023-12-12T15:12:18.216Z,54
2023-12-12T15:13:24.400Z,54
2023-12-12T15:14:30.459Z,54
2023-12-12T15:15:36.656Z,54
2023-12-12T15:16:42.500Z,54
2023-12-12T15:17:48.010Z,54
2023-12-12T15:18:52.749Z,54
2023-12-12T15:19:59.049Z,54